Time;durP1;ratioP1;P1;durP2;ratioP2;P2;SDS_P1;SDS_P2;PMS_P1;PMS_P2;Temp;Humidity;BMP_temperature;BMP_pressure;BME280_temperature;BME280_humidity;BME280_pressure;Samples;Min_cycle;Max_cycle;Signal;HPM_P1;HPM_P2
2023/03/23 00:01:02;;;;;;;32.67;26.45;;;10.10;99.90;;;;;;5062107;28;20051;-39
2023/03/23 00:03:28;;;;;;;28.00;24.83;;;10.10;99.90;;;;;;5076229;28;20504;-46
2023/03/23 00:05:59;;;;;;;31.50;26.65;;;10.10;99.90;;;;;;5073954;28;20079;-53
2023/03/23 00:08:25;;;;;;;28.60;25.65;;;10.20;99.90;;;;;;5076110;28;20453;-54
2023/03/23 00:10:56;;;;;;;28.92;26.02;;;10.20;99.90;;;;;;5075591;28;20059;-41
2023/03/23 00:13:25;;;;;;;31.40;24.23;;;10.20;99.90;;;;;;5076233;28;20040;-40
2023/03/23 00:15:52;;;;;;;29.80;24.25;;;10.30;99.90;;;;;;5049807;28;20105;-43
2023/03/23 00:18:21;;;;;;;28.98;20.67;;;10.30;99.90;;;;;;5074998;28;20039;-48
2023/03/23 00:20:52;;;;;;;22.08;19.15;;;10.40;99.90;;;;;;5076314;28;20063;-40
2023/03/23 00:23:20;;;;;;;21.58;16.38;;;10.40;99.90;;;;;;5075800;28;20428;-39
2023/03/23 00:25:52;;;;;;;17.08;14.98;;;10.50;99.90;;;;;;5075751;28;20040;-46
2023/03/23 00:28:24;;;;;;;6.25;4.75;;;10.40;99.90;;;;;;5060691;28;20135;-52
2023/03/23 00:31:05;;;;;;;5.88;2.97;;;10.20;99.90;;;;;;5075719;28;20074;-47
2023/03/23 00:33:33;;;;;;;3.65;1.85;;;10.10;99.90;;;;;;5057906;28;20092;-51
2023/03/23 00:35:59;;;;;;;2.92;1.60;;;10.00;99.90;;;;;;5055609;28;20535;-45
2023/03/23 00:38:25;;;;;;;2.92;1.52;;;9.90;99.90;;;;;;5041662;28;20546;-47
2023/03/23 00:40:52;;;;;;;2.40;1.40;;;9.90;99.90;;;;;;5069390;28;20071;-44
2023/03/23 00:43:19;;;;;;;5.93;2.78;;;9.80;99.90;;;;;;5075260;28;20043;-40
2023/03/23 00:45:49;;;;;;;4.88;3.28;;;9.90;99.90;;;;;;5074467;28;20048;-48
2023/03/23 00:48:15;;;;;;;5.07;4.25;;;9.80;99.90;;;;;;5075260;28;20052;-43
2023/03/23 00:50:40;;;;;;;6.88;4.85;;;9.90;99.90;;;;;;5047584;28;20053;-50
2023/03/23 00:53:07;;;;;;;7.80;6.22;;;9.90;99.90;;;;;;5060324;28;20044;-45
2023/03/23 00:55:33;;;;;;;8.68;6.97;;;9.90;99.90;;;;;;5075665;28;20051;-40
2023/03/23 00:57:59;;;;;;;7.88;6.65;;;9.90;99.90;;;;;;5074886;28;20051;-52
2023/03/23 01:00:26;;;;;;;10.40;7.05;;;9.90;99.90;;;;;;5063685;28;20194;-45
2023/03/23 01:02:53;;;;;;;10.10;8.75;;;9.90;99.90;;;;;;5055309;28;20051;-48
2023/03/23 01:05:19;;;;;;;14.40;10.55;;;10.10;99.90;;;;;;5054720;28;20105;-51
2023/03/23 01:07:45;;;;;;;13.82;10.25;;;10.10;99.90;;;;;;5073598;28;20044;-41
2023/03/23 01:10:15;;;;;;;16.35;11.75;;;10.20;99.90;;;;;;5074252;28;20045;-46
2023/03/23 01:12:43;;;;;;;13.75;11.20;;;10.30;99.90;;;;;;5055085;28;20048;-49
2023/03/23 01:15:13;;;;;;;14.25;11.68;;;10.30;99.90;;;;;;5055065;28;20048;-56
2023/03/23 01:17:38;;;;;;;14.73;11.88;;;10.40;99.90;;;;;;5055366;28;20091;-49
2023/03/23 01:20:06;;;;;;;14.30;12.18;;;10.40;99.90;;;;;;5055469;28;20120;-51
2023/03/23 01:22:32;;;;;;;13.57;11.68;;;10.40;99.90;;;;;;5055129;28;20486;-53
2023/03/23 01:24:58;;;;;;;14.63;11.75;;;10.40;99.90;;;;;;5054038;28;20423;-40
2023/03/23 01:27:23;;;;;;;14.82;11.02;;;10.40;99.90;;;;;;5053148;28;20118;-49
2023/03/23 01:29:49;;;;;;;14.10;11.02;;;10.50;99.90;;;;;;5055293;28;20571;-50
2023/03/23 01:32:15;;;;;;;13.98;10.27;;;10.40;99.90;;;;;;5055231;28;20044;-48
2023/03/23 01:34:40;;;;;;;15.75;10.25;;;10.50;99.90;;;;;;5054789;28;20044;-43
2023/03/23 01:37:06;;;;;;;13.60;9.88;;;10.50;99.90;;;;;;5048781;28;20151;-43
2023/03/23 01:39:32;;;;;;;11.00;9.55;;;10.60;99.90;;;;;;5053018;28;20413;-53
2023/03/23 01:41:57;;;;;;;13.48;8.60;;;10.60;99.90;;;;;;5074845;28;20059;-53
2023/03/23 01:44:23;;;;;;;16.85;9.98;;;10.60;99.90;;;;;;5075127;28;20056;-41
2023/03/23 01:46:48;;;;;;;14.43;9.43;;;10.50;99.90;;;;;;5075046;28;20044;-47
2023/03/23 01:49:41;;;;;;;13.15;8.65;;;10.50;99.90;;;;;;5071547;28;20488;-52
2023/03/23 01:52:21;;;;;;;11.98;8.75;;;10.50;99.90;;;;;;5058198;28;20063;-41
2023/03/23 01:54:48;;;;;;;12.57;8.93;;;10.60;99.90;;;;;;5041752;28;20564;-41
2023/03/23 01:57:17;;;;;;;15.93;9.27;;;10.60;99.90;;;;;;5069760;28;20466;-49
2023/03/23 01:59:47;;;;;;;11.60;8.35;;;10.60;99.90;;;;;;5058223;28;20044;-49
2023/03/23 02:02:14;;;;;;;13.27;8.27;;;10.60;99.90;;;;;;5057892;28;20079;-46
2023/03/23 02:04:41;;;;;;;13.60;8.38;;;10.60;99.90;;;;;;5066238;28;20386;-40
2023/03/23 02:07:08;;;;;;;13.15;8.05;;;10.50;99.90;;;;;;5076478;28;20483;-52
2023/03/23 02:09:34;;;;;;;12.95;8.75;;;10.60;99.90;;;;;;5066990;28;20044;-51
2023/03/23 02:12:00;;;;;;;11.32;7.88;;;10.60;99.90;;;;;;5077992;28;20056;-47
2023/03/23 02:14:27;;;;;;;10.70;7.57;;;10.60;99.90;;;;;;5077594;28;20498;-41
2023/03/23 02:17:10;;;;;;;9.48;7.75;;;10.50;99.90;;;;;;5078234;28;20060;-43
2023/03/23 02:20:00;;;;;;;10.98;7.45;;;10.50;99.90;;;;;;5078645;28;20061;-40
2023/03/23 02:22:48;;;;;;;13.73;8.70;;;10.50;99.90;;;;;;5078671;28;20056;-40
2023/03/23 02:25:35;;;;;;;14.18;8.50;;;10.50;99.90;;;;;;5072868;28;20048;-42
2023/03/23 02:28:30;;;;;;;13.32;7.80;;;10.50;99.90;;;;;;5071161;28;20048;-39
2023/03/23 02:31:38;;;;;;;11.25;7.40;;;10.50;99.90;;;;;;5078782;28;20057;-40
2023/03/23 02:34:14;;;;;;;11.55;7.15;;;10.60;99.90;;;;;;5091154;27;20503;-46
2023/03/23 02:36:46;;;;;;;11.18;6.90;;;10.60;99.90;;;;;;5071856;28;20132;-45
2023/03/23 02:39:23;;;;;;;9.98;7.68;;;10.60;99.90;;;;;;5062376;28;20051;-51
2023/03/23 02:41:59;;;;;;;13.05;7.70;;;10.60;99.90;;;;;;5078003;28;20410;-46
2023/03/23 02:44:29;;;;;;;12.82;7.68;;;10.60;99.90;;;;;;5077009;28;20043;-48
2023/03/23 02:46:57;;;;;;;13.85;7.03;;;10.60;99.90;;;;;;5078141;28;20044;-52
2023/03/23 02:49:25;;;;;;;10.00;7.07;;;10.60;99.90;;;;;;5072201;28;20079;-45
2023/03/23 02:51:53;;;;;;;14.48;7.85;;;10.60;99.90;;;;;;5057325;28;20055;-41
2023/03/23 02:54:22;;;;;;;13.25;6.90;;;10.60;99.90;;;;;;5073108;28;20401;-50
2023/03/23 02:56:50;;;;;;;9.13;6.75;;;10.60;99.90;;;;;;5078291;28;20945;-46
2023/03/23 02:59:16;;;;;;;9.63;6.70;;;10.60;99.90;;;;;;5074496;28;20047;-41
2023/03/23 03:01:41;;;;;;;11.73;6.40;;;10.60;99.90;;;;;;5044499;28;20503;-40
2023/03/23 03:04:14;;;;;;;7.80;5.40;;;10.70;99.90;;;;;;5052785;28;20459;-46
2023/03/23 03:07:01;;;;;;;9.63;6.30;;;10.70;99.90;;;;;;5054459;28;20060;-47
2023/03/23 03:09:53;;;;;;;10.75;6.00;;;10.70;99.90;;;;;;5056820;28;20056;-40
2023/03/23 03:12:48;;;;;;;10.50;6.50;;;10.70;99.90;;;;;;5055211;28;20468;-49
2023/03/23 03:15:29;;;;;;;11.88;6.43;;;10.70;99.90;;;;;;5052834;28;20215;-47
2023/03/23 03:18:37;;;;;;;8.88;6.35;;;10.70;99.90;;;;;;5033139;28;20170;-43
2023/03/23 03:21:07;;;;;;;11.40;7.40;;;10.70;99.90;;;;;;5035325;28;20234;-48
2023/03/23 03:23:36;;;;;;;10.90;6.57;;;10.70;99.90;;;;;;5052744;28;20491;-45
2023/03/23 03:26:04;;;;;;;11.70;6.45;;;10.60;99.90;;;;;;5052683;28;20182;-40
2023/03/23 03:28:32;;;;;;;11.38;5.97;;;10.70;99.90;;;;;;5052744;28;20052;-46
2023/03/23 03:31:01;;;;;;;8.25;6.00;;;10.60;99.90;;;;;;5053349;28;20179;-46
2023/03/23 03:33:30;;;;;;;11.57;7.05;;;10.60;99.90;;;;;;5052525;28;20071;-39
2023/03/23 03:35:59;;;;;;;12.45;6.72;;;10.60;99.90;;;;;;5053223;28;20150;-49
2023/03/23 03:38:26;;;;;;;14.02;7.65;;;10.50;99.90;;;;;;5042191;28;20135;-46
2023/03/23 03:40:52;;;;;;;9.63;5.32;;;10.50;99.90;;;;;;5053356;28;20052;-42
2023/03/23 03:43:18;;;;;;;19.90;8.05;;;10.40;99.90;;;;;;5052995;28;20515;-42
2023/03/23 03:45:44;;;;;;;16.17;8.25;;;10.30;99.90;;;;;;5052706;28;20200;-48
2023/03/23 03:48:10;;;;;;;13.73;7.72;;;10.20;99.90;;;;;;5052619;28;20055;-53
2023/03/23 03:50:36;;;;;;;9.10;4.97;;;10.10;99.90;;;;;;5040950;28;20049;-42
2023/03/23 03:53:01;;;;;;;9.50;5.18;;;10.10;99.90;;;;;;5069877;28;20052;-43
2023/03/23 03:55:27;;;;;;;8.80;3.92;;;9.90;99.90;;;;;;5063636;28;20133;-40
2023/03/23 03:57:54;;;;;;;11.10;3.97;;;9.90;99.90;;;;;;5061938;28;20097;-45
2023/03/23 04:00:20;;;;;;;11.35;5.43;;;9.90;99.90;;;;;;5063283;28;20048;-41
2023/03/23 04:02:50;;;;;;;9.35;6.13;;;9.80;99.90;;;;;;5050065;28;20063;-43
2023/03/23 04:05:17;;;;;;;9.73;7.63;;;9.90;99.90;;;;;;5075843;28;20470;-44
2023/03/23 04:07:43;;;;;;;12.55;7.00;;;9.90;99.90;;;;;;5075609;28;20048;-43
2023/03/23 04:10:11;;;;;;;12.15;7.55;;;10.00;99.90;;;;;;5076818;28;20469;-52
2023/03/23 04:12:37;;;;;;;9.93;6.15;;;10.10;99.90;;;;;;5064592;28;20055;-39
2023/03/23 04:15:03;;;;;;;17.50;7.28;;;10.10;99.90;;;;;;5076099;28;20060;-40
2023/03/23 04:17:29;;;;;;;10.27;5.40;;;10.10;99.90;;;;;;5076008;28;20290;-55
2023/03/23 04:19:59;;;;;;;14.15;5.13;;;10.10;99.90;;;;;;5074309;28;20051;-48
2023/03/23 04:22:29;;;;;;;8.75;4.60;;;10.00;99.90;;;;;;5064374;28;20118;-43
2023/03/23 04:24:58;;;;;;;9.55;4.93;;;9.90;99.90;;;;;;5075559;28;20052;-46
2023/03/23 04:27:25;;;;;;;11.23;5.80;;;9.90;99.90;;;;;;5075442;28;20776;-48
2023/03/23 04:29:50;;;;;;;12.90;6.50;;;9.90;99.90;;;;;;5075634;28;20097;-43
2023/03/23 04:32:17;;;;;;;13.57;5.93;;;9.90;99.90;;;;;;5067420;28;20044;-40
2023/03/23 04:34:43;;;;;;;14.43;6.05;;;9.90;99.90;;;;;;5055501;28;20380;-48
2023/03/23 04:37:10;;;;;;;10.45;6.07;;;9.90;99.90;;;;;;5048667;28;20636;-53
2023/03/23 04:39:35;;;;;;;10.15;6.57;;;9.90;99.90;;;;;;5053286;28;20136;-43
2023/03/23 04:42:01;;;;;;;12.70;5.93;;;9.90;99.90;;;;;;5055570;28;20078;-40
2023/03/23 04:44:29;;;;;;;11.13;5.82;;;9.90;99.90;;;;;;5070381;28;20413;-48
2023/03/23 04:46:54;;;;;;;10.68;5.82;;;9.90;99.90;;;;;;5075633;28;20517;-49
2023/03/23 04:49:20;;;;;;;12.60;5.47;;;9.90;99.90;;;;;;5056898;28;20051;-46
2023/03/23 04:51:46;;;;;;;13.80;6.57;;;9.90;99.90;;;;;;5054114;28;20507;-41
2023/03/23 04:54:12;;;;;;;17.25;5.53;;;9.90;99.90;;;;;;5057988;28;20044;-54
2023/03/23 04:56:38;;;;;;;12.73;5.10;;;9.90;99.90;;;;;;5076585;28;20077;-40
2023/03/23 04:59:06;;;;;;;11.93;4.80;;;9.80;99.90;;;;;;5056021;28;20052;-48
2023/03/23 05:01:31;;;;;;;15.35;5.45;;;9.80;99.90;;;;;;5046758;28;20095;-43
2023/03/23 05:03:57;;;;;;;17.85;4.85;;;9.70;99.90;;;;;;5049908;28;20139;-46
2023/03/23 05:06:22;;;;;;;18.10;4.55;;;9.70;99.90;;;;;;5053758;28;20048;-46
2023/03/23 05:08:48;;;;;;;15.02;3.97;;;9.70;99.90;;;;;;5054699;28;20136;-47
2023/03/23 05:11:14;;;;;;;16.55;4.57;;;9.60;99.90;;;;;;5055614;28;20499;-54
2023/03/23 05:13:40;;;;;;;15.18;4.15;;;9.60;99.90;;;;;;5054287;28;20049;-51
2023/03/23 05:16:06;;;;;;;24.23;5.85;;;9.60;99.90;;;;;;5055693;28;20406;-40
2023/03/23 05:18:32;;;;;;;22.67;4.40;;;9.50;99.90;;;;;;5054152;28;20036;-48
2023/03/23 05:21:02;;;;;;;17.45;4.10;;;9.50;99.90;;;;;;5064484;28;20557;-43
2023/03/23 05:23:30;;;;;;;19.63;4.72;;;9.50;99.90;;;;;;5061199;28;20444;-46
2023/03/23 05:26:00;;;;;;;23.35;4.57;;;9.50;99.90;;;;;;5074811;28;20044;-40
2023/03/23 05:28:27;;;;;;;27.67;5.38;;;9.50;99.90;;;;;;5074007;28;20430;-40
2023/03/23 05:30:53;;;;;;;20.02;4.90;;;9.50;99.90;;;;;;5076715;28;20075;-49
2023/03/23 05:33:20;;;;;;;21.58;4.97;;;9.50;99.90;;;;;;5066758;28;20162;-45
2023/03/23 05:35:49;;;;;;;21.52;5.50;;;9.50;99.90;;;;;;5079039;28;20047;-46
2023/03/23 05:38:16;;;;;;;20.63;4.38;;;9.50;99.90;;;;;;5055769;28;20048;-47
2023/03/23 05:40:42;;;;;;;23.20;4.80;;;9.50;99.90;;;;;;5067642;28;20450;-40
2023/03/23 05:43:08;;;;;;;27.35;5.20;;;9.50;99.90;;;;;;5077307;28;20405;-40
2023/03/23 05:45:34;;;;;;;28.92;5.47;;;9.50;99.90;;;;;;5078654;28;20039;-55
2023/03/23 05:48:00;;;;;;;28.38;5.70;;;9.50;99.90;;;;;;5078320;28;20052;-46
2023/03/23 05:50:27;;;;;;;21.65;4.05;;;9.50;99.90;;;;;;5055609;28;20040;-46
2023/03/23 05:52:55;;;;;;;21.17;4.55;;;9.50;99.90;;;;;;5055635;28;20352;-40
2023/03/23 05:55:20;;;;;;;24.48;4.47;;;9.50;99.90;;;;;;5070215;28;20094;-43
2023/03/23 05:57:47;;;;;;;19.10;4.25;;;9.50;99.90;;;;;;5076994;28;20149;-43
2023/03/23 06:00:13;;;;;;;19.33;4.45;;;9.50;99.90;;;;;;5067503;28;20059;-51
2023/03/23 06:02:43;;;;;;;22.27;4.57;;;9.60;99.90;;;;;;5078168;28;20051;-54
2023/03/23 06:05:10;;;;;;;20.65;4.88;;;9.60;99.90;;;;;;5079628;28;20127;-54
2023/03/23 06:07:37;;;;;;;19.60;4.80;;;9.60;99.90;;;;;;5078767;28;20468;-41
2023/03/23 06:10:05;;;;;;;21.27;4.47;;;9.70;99.90;;;;;;5078888;28;20090;-42
2023/03/23 06:12:31;;;;;;;21.63;5.00;;;9.70;99.90;;;;;;5079270;28;20525;-47
2023/03/23 06:14:57;;;;;;;20.48;5.57;;;9.80;99.90;;;;;;5076976;28;20047;-40
2023/03/23 06:17:22;;;;;;;24.52;4.82;;;9.80;99.90;;;;;;5065014;28;20449;-46
2023/03/23 06:19:50;;;;;;;19.63;4.63;;;9.80;99.90;;;;;;5079294;28;20036;-43
2023/03/23 06:22:17;;;;;;;24.55;5.75;;;9.90;99.90;;;;;;5079285;28;20059;-41
2023/03/23 06:24:43;;;;;;;28.05;5.55;;;9.90;99.90;;;;;;5078701;28;20151;-55
2023/03/23 06:27:10;;;;;;;21.85;5.57;;;9.90;99.90;;;;;;5045804;28;20463;-53
2023/03/23 06:29:36;;;;;;;21.23;5.55;;;9.90;99.90;;;;;;5058521;28;20525;-43
2023/03/23 06:32:03;;;;;;;24.88;6.03;;;9.90;99.90;;;;;;5073726;28;20242;-39
2023/03/23 06:34:30;;;;;;;27.38;5.32;;;9.90;99.90;;;;;;5070052;28;20063;-51
2023/03/23 06:36:56;;;;;;;24.40;4.55;;;9.90;99.90;;;;;;5052166;28;20054;-47
2023/03/23 06:39:22;;;;;;;18.13;5.28;;;9.90;99.90;;;;;;5053308;28;20117;-40
2023/03/23 06:41:48;;;;;;;21.05;4.40;;;10.00;99.90;;;;;;5077110;28;20131;-47
2023/03/23 06:44:14;;;;;;;20.98;5.28;;;10.00;99.90;;;;;;5075892;28;20713;-51
2023/03/23 06:46:41;;;;;;;24.70;4.55;;;10.00;99.90;;;;;;5068842;28;20045;-51
2023/03/23 06:49:08;;;;;;;27.05;6.15;;;10.00;99.90;;;;;;5071967;28;20080;-55
2023/03/23 06:51:34;;;;;;;24.85;5.28;;;10.10;99.90;;;;;;5052821;28;20048;-49
2023/03/23 06:54:00;;;;;;;23.95;6.00;;;10.10;99.90;;;;;;5073105;28;20044;-52
2023/03/23 06:56:25;;;;;;;23.58;5.57;;;10.10;99.90;;;;;;5077662;28;20059;-48
2023/03/23 06:58:52;;;;;;;32.50;5.40;;;10.10;99.90;;;;;;5063910;28;20086;-48
2023/03/23 07:01:18;;;;;;;29.23;6.07;;;10.20;99.90;;;;;;5065598;28;20410;-40
2023/03/23 07:03:44;;;;;;;29.85;6.30;;;10.20;99.90;;;;;;5075849;28;20052;-46
2023/03/23 07:06:11;;;;;;;31.45;5.63;;;10.20;99.90;;;;;;5076560;28;20098;-49
2023/03/23 07:08:37;;;;;;;30.13;6.50;;;10.20;99.90;;;;;;5077776;28;20059;-46
2023/03/23 07:11:03;;;;;;;25.70;5.65;;;10.30;99.90;;;;;;5077539;28;20504;-45
2023/03/23 07:13:29;;;;;;;23.08;6.55;;;10.30;99.90;;;;;;5076664;28;20413;-51
2023/03/23 07:15:54;;;;;;;26.23;6.00;;;10.40;99.90;;;;;;5072079;28;20511;-47
2023/03/23 07:18:21;;;;;;;26.15;5.20;;;10.40;99.90;;;;;;5076821;28;20422;-46
2023/03/23 07:20:48;;;;;;;28.50;5.57;;;10.40;99.90;;;;;;5078119;28;20058;-42
2023/03/23 07:23:15;;;;;;;24.83;5.38;;;10.40;99.90;;;;;;5076791;28;20051;-51
2023/03/23 07:25:41;;;;;;;27.70;5.00;;;10.40;99.90;;;;;;5055402;28;20048;-48
2023/03/23 07:28:06;;;;;;;25.42;6.07;;;10.60;99.90;;;;;;5056209;28;20060;-46
2023/03/23 07:30:32;;;;;;;29.40;6.07;;;10.70;99.90;;;;;;5055151;28;20558;-40
2023/03/23 07:32:58;;;;;;;22.13;6.20;;;10.70;99.90;;;;;;5055277;28;20040;-44
2023/03/23 07:35:25;;;;;;;25.25;5.28;;;10.70;99.90;;;;;;5056791;28;20037;-40
2023/03/23 07:37:51;;;;;;;31.30;6.13;;;10.80;99.90;;;;;;5054406;28;20580;-42
2023/03/23 07:40:17;;;;;;;24.75;6.70;;;10.80;99.90;;;;;;5056295;28;20048;-48
2023/03/23 07:42:45;;;;;;;22.73;5.85;;;10.80;99.90;;;;;;5057302;28;20047;-44
2023/03/23 07:45:13;;;;;;;23.92;5.95;;;10.80;99.90;;;;;;5055011;28;20826;-44
2023/03/23 07:47:40;;;;;;;27.10;5.70;;;10.80;99.90;;;;;;5037593;28;20091;-47
2023/03/23 07:50:07;;;;;;;26.67;6.10;;;10.80;99.90;;;;;;5053459;28;20582;-41
2023/03/23 07:52:33;;;;;;;23.25;5.68;;;10.80;99.90;;;;;;5055901;28;20106;-41
2023/03/23 07:55:01;;;;;;;27.10;6.00;;;10.90;99.90;;;;;;5053071;28;20285;-48
2023/03/23 07:57:27;;;;;;;24.55;5.28;;;10.80;99.90;;;;;;5055707;28;20099;-49
2023/03/23 07:59:53;;;;;;;27.98;6.32;;;10.70;99.90;;;;;;5054139;28;20087;-46
2023/03/23 08:02:18;;;;;;;26.52;6.28;;;10.70;99.90;;;;;;5054314;28;20425;-46
2023/03/23 08:04:44;;;;;;;24.98;5.68;;;10.80;99.90;;;;;;5052666;28;20049;-51
2023/03/23 08:07:12;;;;;;;32.85;7.40;;;10.80;99.90;;;;;;5053644;28;20608;-49
2023/03/23 08:09:38;;;;;;;26.60;6.53;;;10.90;99.90;;;;;;5052325;28;20059;-42
2023/03/23 08:12:04;;;;;;;37.20;6.97;;;10.90;99.90;;;;;;5037484;28;20053;-42
2023/03/23 08:14:30;;;;;;;39.92;9.35;;;10.90;99.90;;;;;;5052599;28;20048;-47
2023/03/23 08:16:57;;;;;;;28.50;6.57;;;10.90;99.90;;;;;;5052811;28;20063;-48
2023/03/23 08:19:23;;;;;;;29.00;6.03;;;10.90;99.90;;;;;;5055976;28;20051;-44
2023/03/23 08:21:49;;;;;;;27.15;6.68;;;10.90;99.90;;;;;;5053495;28;20056;-45
2023/03/23 08:24:15;;;;;;;37.28;7.95;;;10.90;99.90;;;;;;5054657;28;20609;-49
2023/03/23 08:26:41;;;;;;;29.90;6.90;;;11.20;99.90;;;;;;5055999;28;20056;-46
2023/03/23 08:29:08;;;;;;;33.53;7.55;;;11.40;99.90;;;;;;5055203;28;20064;-39
2023/03/23 08:31:35;;;;;;;36.05;7.47;;;11.30;99.90;;;;;;5053438;28;20052;-39
2023/03/23 08:34:04;;;;;;;31.83;6.32;;;11.40;99.90;;;;;;5054274;28;20052;-42
2023/03/23 08:36:31;;;;;;;25.55;7.57;;;11.50;99.90;;;;;;5052843;28;20051;-52
2023/03/23 08:38:58;;;;;;;34.60;8.65;;;11.80;99.90;;;;;;5054496;28;20152;-40
2023/03/23 08:41:24;;;;;;;34.30;9.38;;;12.00;99.90;;;;;;5055766;28;20107;-43
2023/03/23 08:43:50;;;;;;;37.17;8.38;;;12.10;99.90;;;;;;5054118;28;20113;-48
2023/03/23 08:46:16;;;;;;;30.45;6.90;;;12.20;99.90;;;;;;5053359;28;20059;-40
2023/03/23 08:48:43;;;;;;;36.95;7.78;;;12.40;99.90;;;;;;5052834;28;20506;-48
2023/03/23 08:51:10;;;;;;;35.35;7.50;;;12.40;99.90;;;;;;5050129;28;20112;-51
2023/03/23 08:53:36;;;;;;;27.95;6.82;;;12.60;99.90;;;;;;5052001;28;20560;-39
2023/03/23 08:56:04;;;;;;;30.67;8.98;;;12.60;99.90;;;;;;5054786;28;20055;-43
2023/03/23 08:58:30;;;;;;;34.25;8.30;;;12.60;99.90;;;;;;5056568;28;20055;-51
2023/03/23 09:00:55;;;;;;;36.15;7.55;;;12.70;99.90;;;;;;5053691;28;20045;-46
2023/03/23 09:03:21;;;;;;;33.20;6.70;;;12.70;99.90;;;;;;5054055;28;20036;-43
2023/03/23 09:05:47;;;;;;;31.38;7.57;;;12.80;99.90;;;;;;5055498;28;20094;-48
2023/03/23 09:08:13;;;;;;;34.20;8.32;;;13.00;99.90;;;;;;5057868;28;20051;-50
2023/03/23 09:10:39;;;;;;;34.38;6.90;;;13.10;99.90;;;;;;5057881;28;20047;-49
2023/03/23 09:13:06;;;;;;;29.55;7.53;;;13.20;99.90;;;;;;5052107;28;20032;-49
2023/03/23 09:15:32;;;;;;;33.05;7.68;;;13.30;99.90;;;;;;5055517;28;20711;-43
2023/03/23 09:17:58;;;;;;;38.92;8.52;;;13.40;99.90;;;;;;5053430;28;20052;-47
2023/03/23 09:20:26;;;;;;;29.80;6.85;;;13.40;99.90;;;;;;5052465;28;20573;-50
2023/03/23 09:22:54;;;;;;;33.13;8.07;;;13.60;99.90;;;;;;5053027;28;20040;-45
2023/03/23 09:25:25;;;;;;;31.58;8.20;;;13.40;99.90;;;;;;5060169;28;20115;-50
2023/03/23 09:27:56;;;;;;;32.55;7.85;;;13.40;99.90;;;;;;5056277;28;20159;-45
2023/03/23 09:30:27;;;;;;;38.42;7.85;;;13.40;99.90;;;;;;5058010;28;20078;-40
2023/03/23 09:32:54;;;;;;;33.13;7.55;;;13.50;99.90;;;;;;5056754;28;20074;-46
2023/03/23 09:35:21;;;;;;;38.15;8.75;;;13.40;99.90;;;;;;5058621;28;20495;-51
2023/03/23 09:37:49;;;;;;;33.33;6.95;;;13.40;99.90;;;;;;5060259;28;20507;-40
2023/03/23 09:40:30;;;;;;;35.47;8.57;;;13.40;99.90;;;;;;5058144;28;20049;-50
2023/03/23 09:43:14;;;;;;;27.20;7.07;;;13.60;99.90;;;;;;5060167;28;20456;-46
2023/03/23 09:46:02;;;;;;;28.20;7.43;;;13.80;99.90;;;;;;5058021;28;20129;-48
2023/03/23 09:48:40;;;;;;;32.88;6.88;;;13.70;99.90;;;;;;5054684;28;20049;-40
2023/03/23 09:51:24;;;;;;;35.15;7.00;;;13.80;99.90;;;;;;5055494;28;20048;-41
2023/03/23 09:53:56;;;;;;;35.13;7.80;;;13.90;99.90;;;;;;5053716;28;20048;-51
2023/03/23 09:56:26;;;;;;;29.70;7.15;;;13.90;99.90;;;;;;5056318;28;20098;-48
2023/03/23 09:59:19;;;;;;;27.80;7.28;;;13.90;99.90;;;;;;5057869;28;20128;-39
2023/03/23 10:01:49;;;;;;;25.40;6.82;;;13.90;99.90;;;;;;5055431;28;20198;-50
2023/03/23 10:04:32;;;;;;;22.95;6.25;;;13.70;99.90;;;;;;5057362;28;20044;-51
2023/03/23 10:07:15;;;;;;;22.90;4.90;;;13.60;99.90;;;;;;5055079;28;20605;-40
2023/03/23 10:09:43;;;;;;;20.48;6.65;;;13.50;99.90;;;;;;5054815;28;20037;-42
2023/03/23 10:12:29;;;;;;;26.10;6.60;;;13.40;99.90;;;;;;5056204;28;20048;-53
2023/03/23 10:15:05;;;;;;;27.30;7.05;;;13.20;99.90;;;;;;5053859;28;20048;-47
2023/03/23 10:17:35;;;;;;;29.50;6.95;;;13.10;99.90;;;;;;5054401;28;20399;-45
2023/03/23 10:20:28;;;;;;;27.90;6.22;;;13.10;99.90;;;;;;5055817;28;20116;-46
2023/03/23 10:23:01;;;;;;;21.10;5.85;;;13.20;99.90;;;;;;5053236;28;20047;-41
2023/03/23 10:25:31;;;;;;;21.35;5.47;;;13.30;99.90;;;;;;5056471;28;21055;-44
2023/03/23 10:28:10;;;;;;;28.85;6.13;;;13.60;99.90;;;;;;5051546;28;20041;-40
2023/03/23 10:30:52;;;;;;;29.33;5.93;;;13.60;99.90;;;;;;5051253;28;20123;-46
2023/03/23 10:33:30;;;;;;;27.37;6.03;;;13.50;99.90;;;;;;5052628;28;20047;-52
2023/03/23 10:36:03;;;;;;;17.48;5.30;;;13.50;99.90;;;;;;5052620;28;20290;-47
2023/03/23 10:38:37;;;;;;;20.20;5.20;;;13.60;99.90;;;;;;5085728;27;20817;-52
2023/03/23 10:41:12;;;;;;;25.65;5.85;;;13.70;99.90;;;;;;5056013;28;20054;-45
2023/03/23 10:43:39;;;;;;;19.23;4.72;;;14.00;99.90;;;;;;5053558;28;20400;-47
2023/03/23 10:46:11;;;;;;;24.70;5.22;;;14.20;99.90;;;;;;5039343;28;20048;-49
2023/03/23 10:48:38;;;;;;;19.48;5.38;;;14.30;99.90;;;;;;5055145;28;20098;-45
2023/03/23 10:51:13;;;;;;;21.00;4.38;;;14.30;99.90;;;;;;5053626;28;20051;-44
2023/03/23 10:53:50;;;;;;;16.63;5.63;;;14.20;99.90;;;;;;5055095;28;20045;-49
2023/03/23 10:56:24;;;;;;;21.35;5.30;;;14.20;99.90;;;;;;5056673;28;20044;-52
2023/03/23 10:58:50;;;;;;;22.40;5.07;;;14.30;99.90;;;;;;5057686;28;20044;-53
2023/03/23 11:01:19;;;;;;;19.40;5.15;;;14.20;99.90;;;;;;5055604;28;20040;-42
2023/03/23 11:03:48;;;;;;;24.13;5.75;;;14.20;99.90;;;;;;5056972;28;20530;-52
2023/03/23 11:06:28;;;;;;;20.38;5.13;;;14.20;99.90;;;;;;5055159;28;20088;-50
2023/03/23 11:08:58;;;;;;;18.08;4.35;;;14.20;99.90;;;;;;5071713;22;20113;-45
2023/03/23 11:11:36;;;;;;;18.70;5.80;;;14.30;99.90;;;;;;5073557;28;20367;-41
2023/03/23 11:14:18;;;;;;;18.77;4.72;;;14.30;99.90;;;;;;5073113;28;20316;-47
2023/03/23 11:16:50;;;;;;;20.77;5.45;;;14.30;99.90;;;;;;5073607;28;20146;-48
2023/03/23 11:19:23;;;;;;;17.02;4.32;;;14.40;99.90;;;;;;5072099;28;20413;-47
2023/03/23 11:21:52;;;;;;;12.90;3.28;;;14.20;99.90;;;;;;5072691;28;20162;-40
2023/03/23 11:24:18;;;;;;;18.50;4.07;;;14.10;99.90;;;;;;5072513;28;20044;-44
2023/03/23 11:26:45;;;;;;;19.15;5.15;;;14.10;99.90;;;;;;5073159;28;20072;-46
2023/03/23 11:29:24;;;;;;;18.40;4.65;;;14.10;99.90;;;;;;5073966;28;20490;-47
2023/03/23 11:31:58;;;;;;;24.83;5.80;;;14.20;99.90;;;;;;5073432;28;20073;-50
2023/03/23 11:34:32;;;;;;;20.92;5.38;;;14.30;99.90;;;;;;5073364;28;20498;-41
2023/03/23 11:37:06;;;;;;;13.75;3.95;;;14.30;99.90;;;;;;5071424;28;20469;-46
2023/03/23 11:39:45;;;;;;;15.68;4.22;;;14.40;99.90;;;;;;5073434;28;20048;-45
2023/03/23 11:42:34;;;;;;;16.52;4.05;;;14.50;99.90;;;;;;5072579;28;20063;-45
2023/03/23 11:45:14;;;;;;;20.00;4.57;;;14.40;99.90;;;;;;5072434;28;20051;-51
2023/03/23 11:47:52;;;;;;;15.73;4.88;;;14.50;99.90;;;;;;5071563;28;20044;-54
2023/03/23 11:50:26;;;;;;;16.48;4.47;;;14.50;99.90;;;;;;5073569;28;20048;-45
2023/03/23 11:53:03;;;;;;;16.15;3.92;;;14.50;99.90;;;;;;5072061;28;20047;-46
2023/03/23 11:55:37;;;;;;;26.35;5.68;;;14.40;99.90;;;;;;5072032;28;20732;-46
2023/03/23 11:58:12;;;;;;;23.92;5.18;;;14.50;99.90;;;;;;5070439;28;20134;-44
2023/03/23 12:00:46;;;;;;;19.65;5.55;;;14.60;99.90;;;;;;5073008;28;20553;-40
2023/03/23 12:03:42;;;;;;;13.80;4.60;;;14.60;99.90;;;;;;5072720;28;20079;-39
2023/03/23 12:06:12;;;;;;;21.58;4.80;;;14.60;99.90;;;;;;5069821;28;20044;-51
2023/03/23 12:08:51;;;;;;;15.77;5.45;;;14.60;99.90;;;;;;5070982;28;20101;-44
2023/03/23 12:11:33;;;;;;;25.77;6.13;;;14.70;99.90;;;;;;5073811;28;20066;-39
2023/03/23 12:14:16;;;;;;;16.42;4.63;;;14.70;99.90;;;;;;5072610;28;20935;-43
2023/03/23 12:17:10;;;;;;;20.50;4.07;;;14.60;99.90;;;;;;5071508;28;20561;-49
2023/03/23 12:19:57;;;;;;;20.25;4.53;;;14.50;99.90;;;;;;5074276;28;20127;-41
2023/03/23 12:22:49;;;;;;;21.58;5.60;;;14.30;99.90;;;;;;5070112;28;20055;-42
2023/03/23 12:25:29;;;;;;;17.77;4.63;;;14.30;99.90;;;;;;5072942;28;20043;-49
2023/03/23 12:28:12;;;;;;;15.82;5.10;;;14.30;99.90;;;;;;5072453;28;20044;-49
2023/03/23 12:30:56;;;;;;;18.67;5.70;;;14.20;99.90;;;;;;5073407;28;20570;-46
2023/03/23 12:33:25;;;;;;;21.83;5.63;;;14.20;99.90;;;;;;5071746;28;20048;-40
2023/03/23 12:36:14;;;;;;;22.48;4.60;;;14.30;99.90;;;;;;5073013;28;20052;-50
2023/03/23 12:39:31;;;;;;;14.82;4.65;;;14.50;99.90;;;;;;5072873;28;20670;-45
2023/03/23 12:42:11;;;;;;;17.77;4.85;;;14.60;99.90;;;;;;5070666;28;20060;-39
2023/03/23 12:44:48;;;;;;;21.73;4.85;;;14.70;99.90;;;;;;5070925;28;20069;-43
2023/03/23 12:47:26;;;;;;;16.45;3.97;;;14.70;99.90;;;;;;5072102;28;20398;-45
2023/03/23 12:50:03;;;;;;;20.60;4.85;;;14.50;99.90;;;;;;5071547;28;20039;-40
2023/03/23 12:52:40;;;;;;;18.75;4.30;;;14.20;99.90;;;;;;5072674;28;20082;-47
2023/03/23 12:55:19;;;;;;;24.38;5.63;;;14.10;99.90;;;;;;5073239;28;20055;-46